Time,TemperatureF,DewpointF,PressureIn,WindDirection,WindDirectionDegrees,WindSpeedMPH,WindSpeedGustMPH,Humidity,HourlyPrecipIn,Conditions,Clouds,dailyrainin,SolarRadiationWatts/m^2,SoftwareType,DateUTC
2013-06-13 00:02:00,58.0,52.0,-100.00,WNW,291,3.0,10.0,81,0.00,,,0.11,0.000000,,2013-06-13 06:02:00,
2013-06-13 00:33:00,57.0,56.0,-100.00,SSW,194,2.0,6.0,97,0.00,,,0.11,0.000000,,2013-06-13 06:33:00,
2013-06-13 00:44:00,57.0,56.0,-100.00,SSW,194,2.0,6.0,97,0.00,,,0.11,0.000000,,2013-06-13 06:44:00,
2013-06-13 00:52:00,57.0,56.0,-100.00,SSW,194,2.0,6.0,97,0.00,,,0.11,0.000000,,2013-06-13 06:52:00,
2013-06-13 01:01:00,57.0,56.0,-100.00,SSW,194,2.0,6.0,97,0.00,,,0.11,0.000000,,2013-06-13 07:01:00,
2013-06-13 01:33:00,54.0,53.0,-100.00,WSW,256,4.0,7.0,95,0.00,,,0.11,0.000000,,2013-06-13 07:33:00,
2013-06-13 01:42:00,54.0,53.0,-100.00,WSW,256,4.0,7.0,95,0.00,,,0.11,0.000000,,2013-06-13 07:42:00,
2013-06-13 01:52:00,54.0,53.0,-100.00,WSW,256,4.0,7.0,95,0.00,,,0.11,0.000000,,2013-06-13 07:52:00,
2013-06-13 02:01:00,54.0,53.0,-100.00,WSW,256,4.0,7.0,95,0.00,,,0.11,0.000000,,2013-06-13 08:01:00,
2013-06-13 02:32:00,54.0,50.0,-100.00,ESE,103,1.0,10.0,87,0.00,,,0.11,0.000000,,2013-06-13 08:32:00,
2013-06-13 02:43:00,54.0,50.0,-100.00,ESE,103,1.0,10.0,87,0.00,,,0.11,0.000000,,2013-06-13 08:43:00,
2013-06-13 02:52:00,54.0,50.0,-100.00,ESE,103,1.0,10.0,87,0.00,,,0.11,0.000000,,2013-06-13 08:52:00,
2013-06-13 03:01:00,54.0,50.0,-100.00,ESE,103,1.0,10.0,87,0.00,,,0.11,0.000000,,2013-06-13 09:01:00,
2013-06-13 03:32:00,53.0,53.0,-100.00,NNE,12,1.0,9.0,99,0.00,,,0.11,0.000000,,2013-06-13 09:32:00,
2013-06-13 03:42:00,53.0,53.0,-100.00,NNE,12,1.0,9.0,99,0.00,,,0.11,0.000000,,2013-06-13 09:42:00,
2013-06-13 03:52:00,53.0,53.0,-100.00,NNE,12,1.0,9.0,99,0.00,,,0.11,0.000000,,2013-06-13 09:52:00,
2013-06-13 04:01:00,53.0,53.0,-100.00,NNE,12,1.0,9.0,99,0.00,,,0.11,0.000000,,2013-06-13 10:01:00,
2013-06-13 04:33:00,54.0,53.0,-100.00,South,191,1.0,7.0,97,0.00,,,0.11,0.000000,,2013-06-13 10:33:00,
2013-06-13 04:43:00,54.0,53.0,-100.00,South,191,1.0,7.0,97,0.00,,,0.11,0.000000,,2013-06-13 10:43:00,
2013-06-13 04:53:00,54.0,53.0,-100.00,South,191,1.0,7.0,97,0.00,,,0.11,0.000000,,2013-06-13 10:53:00,
2013-06-13 05:01:00,54.0,53.0,-100.00,South,191,1.0,7.0,97,0.00,,,0.11,0.000000,,2013-06-13 11:01:00,
2013-06-13 05:24:00,51.0,48.0,-100.00,SE,144,0.0,7.0,90,0.00,,,0.11,0.000000,,2013-06-13 11:24:00,
2013-06-13 05:32:00,51.0,48.0,-100.00,SE,144,0.0,7.0,90,0.00,,,0.11,0.000000,,2013-06-13 11:32:00,
2013-06-13 05:42:00,51.0,48.0,-100.00,SE,144,0.0,7.0,90,0.00,,,0.11,0.000000,,2013-06-13 11:42:00,
2013-06-13 05:52:00,51.0,48.0,-100.00,SE,144,0.0,7.0,90,0.00,,,0.11,0.000000,,2013-06-13 11:52:00,
2013-06-13 06:01:00,51.0,48.0,-100.00,SE,144,0.0,7.0,90,0.00,,,0.11,0.000000,,2013-06-13 12:01:00,
2013-06-13 06:22:00,51.0,47.0,-100.00,SE,132,0.0,7.0,85,0.00,,,0.11,5.000000,,2013-06-13 12:22:00,
2013-06-13 06:35:00,51.0,47.0,-100.00,SE,132,0.0,7.0,85,0.00,,,0.11,5.000000,,2013-06-13 12:35:00,
2013-06-13 06:43:00,51.0,47.0,-100.00,SE,132,0.0,7.0,85,0.00,,,0.11,5.000000,,2013-06-13 12:43:00,
2013-06-13 06:52:00,51.0,47.0,-100.00,SE,132,0.0,7.0,85,0.00,,,0.11,5.000000,,2013-06-13 12:52:00,
2013-06-13 07:01:00,51.0,47.0,-100.00,SE,132,0.0,7.0,85,0.00,,,0.11,5.000000,,2013-06-13 13:01:00,
2013-06-13 07:33:00,52.0,49.0,-100.00,SSW,199,3.0,7.0,88,0.00,,,-99.99,31.000000,,2013-06-13 13:33:00,
2013-06-13 07:43:00,52.0,49.0,-100.00,SSW,199,3.0,7.0,88,0.00,,,-99.99,31.000000,,2013-06-13 13:43:00,
2013-06-13 07:53:00,52.0,49.0,-100.00,SSW,199,3.0,7.0,88,0.00,,,-99.99,31.000000,,2013-06-13 13:53:00,
2013-06-13 08:01:00,52.0,49.0,-100.00,SSW,199,3.0,7.0,88,0.00,,,-99.99,31.000000,,2013-06-13 14:01:00,
2013-06-13 08:33:00,56.0,51.0,-100.00,South,188,2.0,17.0,84,0.00,,,0.11,99.000000,,2013-06-13 14:33:00,
2013-06-13 08:43:00,56.0,51.0,-100.00,South,188,2.0,17.0,84,0.00,,,0.11,99.000000,,2013-06-13 14:43:00,
2013-06-13 08:53:00,56.0,51.0,-100.00,South,188,2.0,17.0,84,0.00,,,0.11,99.000000,,2013-06-13 14:53:00,
2013-06-13 09:01:00,56.0,51.0,-100.00,South,188,2.0,17.0,84,0.00,,,0.11,99.000000,,2013-06-13 15:01:00,
2013-06-13 09:22:00,61.0,47.0,-100.00,NNE,23,11.0,11.0,59,0.00,,,0.11,485.000000,,2013-06-13 15:22:00,
2013-06-13 10:01:00,61.0,47.0,-100.00,NNE,23,11.0,11.0,59,0.00,,,0.11,485.000000,,2013-06-13 16:01:00,
2013-06-13 10:22:00,62.0,47.0,-100.00,NNE,18,16.0,23.0,57,-99.99,,,0.11,695.000000,,2013-06-13 16:22:00,
2013-06-13 11:33:00,60.0,42.0,-100.00,North,6,21.0,30.0,51,-99.99,,,0.11,949.000000,,2013-06-13 17:33:00,
2013-06-13 11:43:00,60.0,42.0,-100.00,North,6,21.0,30.0,51,-99.99,,,0.11,949.000000,,2013-06-13 17:43:00,
2013-06-13 11:53:00,60.0,42.0,-100.00,North,6,21.0,30.0,51,-99.99,,,0.11,949.000000,,2013-06-13 17:53:00,
2013-06-13 12:02:00,60.0,42.0,-100.00,North,6,21.0,30.0,51,-99.99,,,0.11,949.000000,,2013-06-13 18:02:00,
2013-06-13 12:33:00,60.0,42.0,-100.00,North,9,19.0,35.0,51,0.00,,,0.11,1031.000000,,2013-06-13 18:33:00,
2013-06-13 12:43:00,60.0,42.0,-100.00,North,9,19.0,35.0,51,0.00,,,0.11,1031.000000,,2013-06-13 18:43:00,
2013-06-13 12:52:00,60.0,42.0,-100.00,North,9,19.0,35.0,51,0.00,,,0.11,1031.000000,,2013-06-13 18:52:00,
2013-06-13 13:01:00,60.0,42.0,-100.00,North,9,19.0,35.0,51,0.00,,,0.11,1031.000000,,2013-06-13 19:01:00,
2013-06-13 13:22:00,61.0,43.0,-100.00,North,4,20.0,33.0,52,0.00,,,0.11,1078.000000,,2013-06-13 19:22:00,
2013-06-13 13:33:00,61.0,43.0,-100.00,North,4,20.0,33.0,52,0.00,,,0.11,1078.000000,,2013-06-13 19:33:00,
2013-06-13 13:43:00,61.0,43.0,-100.00,North,4,20.0,33.0,52,0.00,,,0.11,1078.000000,,2013-06-13 19:43:00,
2013-06-13 13:53:00,61.0,43.0,-100.00,North,4,20.0,33.0,52,0.00,,,0.11,1078.000000,,2013-06-13 19:53:00,
2013-06-13 14:01:00,61.0,43.0,-100.00,North,4,20.0,33.0,52,0.00,,,0.11,1078.000000,,2013-06-13 20:01:00,
2013-06-13 14:22:00,60.0,41.0,-100.00,North,8,21.0,31.0,50,0.00,,,0.11,917.000000,,2013-06-13 20:22:00,
2013-06-13 14:33:00,60.0,41.0,-100.00,North,8,21.0,31.0,50,0.00,,,0.11,917.000000,,2013-06-13 20:33:00,
2013-06-13 14:44:00,60.0,41.0,-100.00,North,8,21.0,31.0,50,0.00,,,0.11,917.000000,,2013-06-13 20:44:00,
2013-06-13 14:53:00,60.0,41.0,-100.00,North,8,21.0,31.0,50,0.00,,,0.11,917.000000,,2013-06-13 20:53:00,
2013-06-13 15:01:00,60.0,41.0,-100.00,North,8,21.0,31.0,50,0.00,,,0.11,917.000000,,2013-06-13 21:01:00,
2013-06-13 15:34:00,57.0,40.0,-100.00,North,1,14.0,31.0,52,0.00,,,0.11,200.000000,,2013-06-13 21:34:00,
2013-06-13 15:43:00,57.0,40.0,-100.00,North,1,14.0,31.0,52,0.00,,,0.11,200.000000,,2013-06-13 21:43:00,
2013-06-13 15:52:00,57.0,40.0,-100.00,North,1,14.0,31.0,52,0.00,,,0.11,200.000000,,2013-06-13 21:52:00,
2013-06-13 16:01:00,57.0,40.0,-100.00,North,1,14.0,31.0,52,0.00,,,0.11,200.000000,,2013-06-13 22:01:00,
2013-06-13 16:33:00,51.0,44.0,-100.00,East,86,9.0,28.0,78,0.06,,,-99.99,57.000000,,2013-06-13 22:33:00,
2013-06-13 16:43:00,51.0,44.0,-100.00,East,86,9.0,28.0,78,0.06,,,-99.99,57.000000,,2013-06-13 22:43:00,
2013-06-13 16:52:00,51.0,44.0,-100.00,East,86,9.0,28.0,78,0.06,,,-99.99,57.000000,,2013-06-13 22:52:00,
2013-06-13 17:01:00,51.0,44.0,-100.00,East,86,9.0,28.0,78,0.06,,,-99.99,57.000000,,2013-06-13 23:01:00,
2013-06-13 17:22:00,58.0,45.0,-100.00,WNW,296,6.0,24.0,63,0.01,,,0.18,565.000000,,2013-06-13 23:22:00,
2013-06-13 17:32:00,58.0,45.0,-100.00,WNW,296,6.0,24.0,63,0.01,,,0.18,565.000000,,2013-06-13 23:32:00,
2013-06-13 17:43:00,58.0,45.0,-100.00,WNW,296,6.0,24.0,63,0.01,,,0.18,565.000000,,2013-06-13 23:43:00,
2013-06-13 17:52:00,58.0,45.0,-100.00,WNW,296,6.0,24.0,63,0.01,,,0.18,565.000000,,2013-06-13 23:52:00,
2013-06-13 18:01:00,58.0,45.0,-100.00,WNW,296,6.0,24.0,63,0.01,,,0.18,565.000000,,2013-06-14 00:01:00,
2013-06-13 18:34:00,55.0,42.0,-100.00,NE,47,12.0,24.0,61,0.00,,,0.18,201.000000,,2013-06-14 00:34:00,
2013-06-13 18:43:00,55.0,42.0,-100.00,NE,47,12.0,24.0,61,0.00,,,0.18,201.000000,,2013-06-14 00:43:00,
2013-06-13 18:53:00,55.0,42.0,-100.00,NE,47,12.0,24.0,61,0.00,,,0.18,201.000000,,2013-06-14 00:53:00,
2013-06-13 19:01:00,55.0,42.0,-100.00,NE,47,12.0,24.0,61,0.00,,,0.18,201.000000,,2013-06-14 01:01:00,
2013-06-13 19:22:00,54.0,43.0,-100.00,NNE,30,12.0,24.0,66,0.00,,,0.18,118.000000,,2013-06-14 01:22:00,
2013-06-13 19:33:00,54.0,43.0,-100.00,NNE,30,12.0,24.0,66,0.00,,,0.18,118.000000,,2013-06-14 01:33:00,
2013-06-13 19:43:00,54.0,43.0,-100.00,NNE,30,12.0,24.0,66,0.00,,,0.18,118.000000,,2013-06-14 01:43:00,
2013-06-13 19:52:00,54.0,43.0,-100.00,NNE,30,12.0,24.0,66,0.00,,,0.18,118.000000,,2013-06-14 01:52:00,
2013-06-13 20:01:00,54.0,43.0,-100.00,NNE,30,12.0,24.0,66,0.00,,,0.18,118.000000,,2013-06-14 02:01:00,
2013-06-13 20:22:00,53.0,40.0,-100.00,NE,42,6.0,19.0,62,0.00,,,0.13,79.000000,,2013-06-14 02:22:00,
2013-06-13 20:33:00,53.0,40.0,-100.00,NE,42,6.0,19.0,62,0.00,,,0.13,79.000000,,2013-06-14 02:33:00,
2013-06-13 20:43:00,53.0,40.0,-100.00,NE,42,6.0,19.0,62,0.00,,,0.13,79.000000,,2013-06-14 02:43:00,
2013-06-13 20:52:00,53.0,40.0,-100.00,NE,42,6.0,19.0,62,0.00,,,0.13,79.000000,,2013-06-14 02:52:00,
2013-06-13 21:02:00,53.0,40.0,-100.00,NE,42,6.0,19.0,62,0.00,,,0.13,79.000000,,2013-06-14 03:02:00,
2013-06-13 21:34:00,52.0,40.0,-100.00,SSW,203,1.0,17.0,64,0.00,,,0.08,11.000000,,2013-06-14 03:34:00,
2013-06-13 21:43:00,52.0,40.0,-100.00,SSW,203,1.0,17.0,64,0.00,,,0.08,11.000000,,2013-06-14 03:43:00,
2013-06-13 21:53:00,52.0,40.0,-100.00,SSW,203,1.0,17.0,64,0.00,,,0.08,11.000000,,2013-06-14 03:53:00,
2013-06-13 22:01:00,52.0,40.0,-100.00,SSW,203,1.0,17.0,64,0.00,,,0.08,11.000000,,2013-06-14 04:01:00,
2013-06-13 22:23:00,51.0,38.0,-100.00,SW,230,10.0,22.0,62,0.00,,,0.07,0.000000,,2013-06-14 04:23:00,
2013-06-13 22:33:00,51.0,38.0,-100.00,SW,230,10.0,22.0,62,0.00,,,0.07,0.000000,,2013-06-14 04:33:00,
2013-06-13 22:43:00,51.0,38.0,-100.00,SW,230,10.0,22.0,62,0.00,,,0.07,0.000000,,2013-06-14 04:43:00,
2013-06-13 22:53:00,51.0,38.0,-100.00,SW,230,10.0,22.0,62,0.00,,,0.07,0.000000,,2013-06-14 04:53:00,
2013-06-13 23:01:00,51.0,38.0,-100.00,SW,230,10.0,22.0,62,0.00,,,0.07,0.000000,,2013-06-14 05:01:00,
2013-06-13 23:22:00,52.0,37.0,-100.00,SW,222,6.0,17.0,56,0.00,,,0.07,0.000000,,2013-06-14 05:22:00,
2013-06-13 23:34:00,52.0,37.0,-100.00,SW,222,6.0,17.0,56,0.00,,,0.07,0.000000,,2013-06-14 05:34:00,
2013-06-13 23:43:00,52.0,37.0,-100.00,SW,222,6.0,17.0,56,0.00,,,0.07,0.000000,,2013-06-14 05:43:00,
2013-06-13 23:52:00,52.0,37.0,-100.00,SW,222,6.0,17.0,56,0.00,,,0.07,0.000000,,2013-06-14 05:52:00,